Página principal
METAR-TAF:

METAR-TAF

Aeroportos :

Aeroporto Internacional Netaji Subhas Chandra Bose

Calcutá, Índia

latitude: 22-39N, longitude: 088-27E, altura: 4 m

Observação actual do tempo

O boletim foi feito há 18 minutos, às 21:00 UTC
Vento calmo
Temperatura 14°C
Humidade 88%
Pressão 1013 hPa
Visibilidade: 2000 m
neblina

METAR: VECC 092100Z 00000KT 2000 BR NSC 14/12 Q1013 NOSIG

Hora: 02:48 (21:18 UTC)

Previsão

O boletim foi feito há 1 hora e 18 minutos, às 20:00 UTC
Previsão válida de 09 às 21 UTC a 10 às 06 UTC
Vento kt de norte
Visibilidade: 2200 m
neblina
Tornando-se
de 10 às 00 UTC a 10 às 02 UTC
Vento kt de norte
Visibilidade: 1400 m
neblina
Tornando-se
de 10 às 04 UTC a 10 às 06 UTC
Vento 5 kt de norte
Visibilidade: 2500 m
bruma

TAF: VECC 092000Z 0921/1006 00000KT 2200 BR NSC BECMG 1000/1002 00000KT 1400 BR BECMG 1004/1006 35005KT 2500 HZ

Observações e previsões do tempo de mais de 4000 aeroportos (mensagens METAR e TAF).

As estações disponíveis são os pontos amarelos e vermelhos sobre o mapa.

Mova o rato sobre o mapa para ver o nome da estação.

Depois clique no ponto para visualizar as observações e previsões meteorológicas.

Para alterar o mapa : clique nos botões verdes com uma cruz preta para aumentar o zoom; no botão verde com uma pitada de zoom; ou nas setas verdes para mapas adjacentes.


METAR-TAF: